sensor_id;sensor_type;location;lat;lon;timestamp;temperature;humidity
38456;DHT22;24237;50.106;20.014;2024-01-11T00:01:26;-3.60;99.90
38456;DHT22;24237;50.106;20.014;2024-01-11T00:03:52;-3.70;99.90
38456;DHT22;24237;50.106;20.014;2024-01-11T00:06:18;-3.70;1.00
38456;DHT22;24237;50.106;20.014;2024-01-11T00:08:43;-3.50;1.00
38456;DHT22;24237;50.106;20.014;2024-01-11T00:11:09;-3.30;99.90
38456;DHT22;24237;50.106;20.014;2024-01-11T00:13:34;-3.10;99.90
38456;DHT22;24237;50.106;20.014;2024-01-11T00:16:00;-3.10;99.90
38456;DHT22;24237;50.106;20.014;2024-01-11T00:18:26;-3.30;99.90
38456;DHT22;24237;50.106;20.014;2024-01-11T00:20:51;-3.10;99.90
38456;DHT22;24237;50.106;20.014;2024-01-11T00:23:17;-3.00;99.90
38456;DHT22;24237;50.106;20.014;2024-01-11T00:25:43;-2.90;99.90
38456;DHT22;24237;50.106;20.014;2024-01-11T00:28:08;-2.90;99.90
38456;DHT22;24237;50.106;20.014;2024-01-11T00:30:34;-3.10;99.90
38456;DHT22;24237;50.106;20.014;2024-01-11T00:33:00;-2.90;99.90
38456;DHT22;24237;50.106;20.014;2024-01-11T00:35:25;-2.90;99.90
38456;DHT22;24237;50.106;20.014;2024-01-11T00:37:51;-2.70;99.70
38456;DHT22;24237;50.106;20.014;2024-01-11T00:40:17;-2.60;99.90
38456;DHT22;24237;50.106;20.014;2024-01-11T00:42:42;-2.50;68.30
38456;DHT22;24237;50.106;20.014;2024-01-11T00:45:08;-2.40;11.60
38456;DHT22;24237;50.106;20.014;2024-01-11T00:47:34;-2.50;28.00
38456;DHT22;24237;50.106;20.014;2024-01-11T00:50:00;-2.70;25.80
38456;DHT22;24237;50.106;20.014;2024-01-11T00:52:25;-2.60;27.60
38456;DHT22;24237;50.106;20.014;2024-01-11T00:54:51;-2.70;15.90
38456;DHT22;24237;50.106;20.014;2024-01-11T00:57:17;-2.60;22.50
38456;DHT22;24237;50.106;20.014;2024-01-11T00:59:42;-2.70;22.40
38456;DHT22;24237;50.106;20.014;2024-01-11T01:02:08;-2.80;42.40
38456;DHT22;24237;50.106;20.014;2024-01-11T01:04:37;-2.80;9.50
38456;DHT22;24237;50.106;20.014;2024-01-11T01:07:03;-2.80;24.60
38456;DHT22;24237;50.106;20.014;2024-01-11T01:09:29;-3.10;30.90
38456;DHT22;24237;50.106;20.014;2024-01-11T01:11:56;-3.10;95.20
38456;DHT22;24237;50.106;20.014;2024-01-11T01:14:21;-2.80;9.90
38456;DHT22;24237;50.106;20.014;2024-01-11T01:16:47;-3.00;32.00
38456;DHT22;24237;50.106;20.014;2024-01-11T01:19:13;-2.90;49.70
38456;DHT22;24237;50.106;20.014;2024-01-11T01:21:38;-2.70;22.70
38456;DHT22;24237;50.106;20.014;2024-01-11T01:24:04;-2.90;10.40
38456;DHT22;24237;50.106;20.014;2024-01-11T01:26:30;-3.00;59.00
38456;DHT22;24237;50.106;20.014;2024-01-11T01:28:55;-2.80;36.50
38456;DHT22;24237;50.106;20.014;2024-01-11T01:31:21;-2.80;22.70
38456;DHT22;24237;50.106;20.014;2024-01-11T01:33:47;-2.70;6.10
38456;DHT22;24237;50.106;20.014;2024-01-11T01:36:13;-2.80;20.90
38456;DHT22;24237;50.106;20.014;2024-01-11T01:38:38;-2.80;1.00
38456;DHT22;24237;50.106;20.014;2024-01-11T01:41:04;-2.70;1.00
38456;DHT22;24237;50.106;20.014;2024-01-11T01:43:32;-2.60;1.00
38456;DHT22;24237;50.106;20.014;2024-01-11T01:45:58;-2.50;1.00
38456;DHT22;24237;50.106;20.014;2024-01-11T01:48:24;-2.50;1.00
38456;DHT22;24237;50.106;20.014;2024-01-11T01:50:50;-2.60;1.00
38456;DHT22;24237;50.106;20.014;2024-01-11T01:53:23;-2.60;1.00
38456;DHT22;24237;50.106;20.014;2024-01-11T01:55:50;-2.80;1.00
38456;DHT22;24237;50.106;20.014;2024-01-11T01:58:17;-2.70;1.00
38456;DHT22;24237;50.106;20.014;2024-01-11T02:00:44;-2.70;1.00
38456;DHT22;24237;50.106;20.014;2024-01-11T02:03:11;-2.80;1.00
38456;DHT22;24237;50.106;20.014;2024-01-11T02:05:37;-2.90;1.00
38456;DHT22;24237;50.106;20.014;2024-01-11T02:08:06;-2.80;1.00
38456;DHT22;24237;50.106;20.014;2024-01-11T02:10:34;-2.80;1.00
38456;DHT22;24237;50.106;20.014;2024-01-11T02:13:01;-2.90;1.00
38456;DHT22;24237;50.106;20.014;2024-01-11T02:15:26;-2.80;1.00
38456;DHT22;24237;50.106;20.014;2024-01-11T02:17:52;-2.80;1.00
38456;DHT22;24237;50.106;20.014;2024-01-11T02:20:18;-2.70;1.00
38456;DHT22;24237;50.106;20.014;2024-01-11T02:22:49;-2.90;1.00
38456;DHT22;24237;50.106;20.014;2024-01-11T02:25:17;-3.00;1.00
38456;DHT22;24237;50.106;20.014;2024-01-11T02:27:47;-3.00;1.00
38456;DHT22;24237;50.106;20.014;2024-01-11T02:30:14;-3.00;1.00
38456;DHT22;24237;50.106;20.014;2024-01-11T02:32:39;-3.00;1.00
38456;DHT22;24237;50.106;20.014;2024-01-11T02:35:06;-3.10;1.00
38456;DHT22;24237;50.106;20.014;2024-01-11T02:37:32;-3.10;1.10
38456;DHT22;24237;50.106;20.014;2024-01-11T02:40:01;-3.20;19.50
38456;DHT22;24237;50.106;20.014;2024-01-11T02:42:27;-3.20;25.70
38456;DHT22;24237;50.106;20.014;2024-01-11T02:44:53;-3.10;21.30
38456;DHT22;24237;50.106;20.014;2024-01-11T02:47:19;-3.10;21.20
38456;DHT22;24237;50.106;20.014;2024-01-11T02:49:45;-3.10;31.20
38456;DHT22;24237;50.106;20.014;2024-01-11T02:52:10;-3.10;28.20
38456;DHT22;24237;50.106;20.014;2024-01-11T02:54:36;-3.10;15.50
38456;DHT22;24237;50.106;20.014;2024-01-11T02:57:02;-3.00;1.00
38456;DHT22;24237;50.106;20.014;2024-01-11T02:59:27;-2.80;1.00
38456;DHT22;24237;50.106;20.014;2024-01-11T03:01:53;-2.80;1.00
38456;DHT22;24237;50.106;20.014;2024-01-11T03:04:19;-2.70;1.00
38456;DHT22;24237;50.106;20.014;2024-01-11T03:06:45;-2.60;1.00
38456;DHT22;24237;50.106;20.014;2024-01-11T03:09:10;-2.60;1.00
38456;DHT22;24237;50.106;20.014;2024-01-11T03:11:36;-2.60;1.00
38456;DHT22;24237;50.106;20.014;2024-01-11T03:14:03;-2.50;1.00
38456;DHT22;24237;50.106;20.014;2024-01-11T03:16:28;-2.70;1.00
38456;DHT22;24237;50.106;20.014;2024-01-11T03:18:54;-2.70;1.00
38456;DHT22;24237;50.106;20.014;2024-01-11T03:21:20;-2.60;1.00
38456;DHT22;24237;50.106;20.014;2024-01-11T03:23:46;-2.80;1.00
38456;DHT22;24237;50.106;20.014;2024-01-11T03:26:16;-2.80;1.00
38456;DHT22;24237;50.106;20.014;2024-01-11T03:28:42;-2.80;1.00
38456;DHT22;24237;50.106;20.014;2024-01-11T03:31:09;-2.80;1.00
38456;DHT22;24237;50.106;20.014;2024-01-11T03:33:35;-2.80;1.00
38456;DHT22;24237;50.106;20.014;2024-01-11T03:36:07;-2.80;1.00
38456;DHT22;24237;50.106;20.014;2024-01-11T03:38:33;-2.80;1.00
38456;DHT22;24237;50.106;20.014;2024-01-11T03:40:59;-2.80;1.00
38456;DHT22;24237;50.106;20.014;2024-01-11T03:43:24;-2.70;1.00
38456;DHT22;24237;50.106;20.014;2024-01-11T03:45:50;-2.70;1.00
38456;DHT22;24237;50.106;20.014;2024-01-11T03:48:16;-2.60;1.00
38456;DHT22;24237;50.106;20.014;2024-01-11T03:50:41;-2.80;1.00
38456;DHT22;24237;50.106;20.014;2024-01-11T03:53:07;-2.80;1.00
38456;DHT22;24237;50.106;20.014;2024-01-11T03:55:33;-2.80;1.00
38456;DHT22;24237;50.106;20.014;2024-01-11T03:57:59;-2.80;1.00
38456;DHT22;24237;50.106;20.014;2024-01-11T04:00:25;-2.80;1.00
38456;DHT22;24237;50.106;20.014;2024-01-11T04:02:50;-2.80;1.00
38456;DHT22;24237;50.106;20.014;2024-01-11T04:05:16;-2.90;1.00
38456;DHT22;24237;50.106;20.014;2024-01-11T04:07:42;-2.90;1.00
38456;DHT22;24237;50.106;20.014;2024-01-11T04:10:08;-3.00;1.00
38456;DHT22;24237;50.106;20.014;2024-01-11T04:12:37;-3.10;1.00
38456;DHT22;24237;50.106;20.014;2024-01-11T04:15:03;-3.30;1.00
38456;DHT22;24237;50.106;20.014;2024-01-11T04:17:29;-3.50;1.00
38456;DHT22;24237;50.106;20.014;2024-01-11T04:19:54;-3.40;1.00
38456;DHT22;24237;50.106;20.014;2024-01-11T04:22:20;-3.50;1.00
38456;DHT22;24237;50.106;20.014;2024-01-11T04:24:46;-3.60;1.00
38456;DHT22;24237;50.106;20.014;2024-01-11T04:27:11;-3.50;1.00
38456;DHT22;24237;50.106;20.014;2024-01-11T04:29:37;-3.70;1.00
38456;DHT22;24237;50.106;20.014;2024-01-11T04:32:03;-3.70;1.00
38456;DHT22;24237;50.106;20.014;2024-01-11T04:34:29;-3.80;1.00
38456;DHT22;24237;50.106;20.014;2024-01-11T04:36:55;-3.80;1.00
38456;DHT22;24237;50.106;20.014;2024-01-11T04:39:20;-3.90;1.00
38456;DHT22;24237;50.106;20.014;2024-01-11T04:41:46;-3.90;1.00
38456;DHT22;24237;50.106;20.014;2024-01-11T04:44:12;-4.20;32.30
38456;DHT22;24237;50.106;20.014;2024-01-11T04:46:37;-4.20;45.10
38456;DHT22;24237;50.106;20.014;2024-01-11T04:49:03;-4.10;39.10
38456;DHT22;24237;50.106;20.014;2024-01-11T04:51:29;-3.90;27.70
38456;DHT22;24237;50.106;20.014;2024-01-11T04:53:54;-3.90;1.00
38456;DHT22;24237;50.106;20.014;2024-01-11T04:56:20;-4.00;29.40
38456;DHT22;24237;50.106;20.014;2024-01-11T04:58:46;-4.00;25.00
38456;DHT22;24237;50.106;20.014;2024-01-11T05:01:13;-3.90;26.90
38456;DHT22;24237;50.106;20.014;2024-01-11T05:03:39;-4.10;36.00
38456;DHT22;24237;50.106;20.014;2024-01-11T05:06:05;-4.10;54.70
38456;DHT22;24237;50.106;20.014;2024-01-11T05:08:31;-4.20;57.40
38456;DHT22;24237;50.106;20.014;2024-01-11T05:10:57;-4.20;99.90
38456;DHT22;24237;50.106;20.014;2024-01-11T05:13:22;-4.20;99.90
38456;DHT22;24237;50.106;20.014;2024-01-11T05:15:48;-4.30;98.30
38456;DHT22;24237;50.106;20.014;2024-01-11T05:18:14;-4.30;99.90
38456;DHT22;24237;50.106;20.014;2024-01-11T05:20:40;-4.30;99.90
38456;DHT22;24237;50.106;20.014;2024-01-11T05:23:06;-4.20;99.90
38456;DHT22;24237;50.106;20.014;2024-01-11T05:25:32;-4.20;99.90
38456;DHT22;24237;50.106;20.014;2024-01-11T05:27:59;-4.10;98.80
38456;DHT22;24237;50.106;20.014;2024-01-11T05:30:25;-4.20;99.90
38456;DHT22;24237;50.106;20.014;2024-01-11T05:32:50;-3.90;71.60
38456;DHT22;24237;50.106;20.014;2024-01-11T05:35:16;-4.20;91.80
38456;DHT22;24237;50.106;20.014;2024-01-11T05:37:42;-4.40;99.90
38456;DHT22;24237;50.106;20.014;2024-01-11T05:40:08;-4.40;99.90
38456;DHT22;24237;50.106;20.014;2024-01-11T05:42:33;-4.40;99.90
38456;DHT22;24237;50.106;20.014;2024-01-11T05:44:59;-4.40;99.90
38456;DHT22;24237;50.106;20.014;2024-01-11T05:47:25;-4.50;1.00
38456;DHT22;24237;50.106;20.014;2024-01-11T05:49:50;-4.30;99.90
38456;DHT22;24237;50.106;20.014;2024-01-11T05:52:16;-4.10;99.90
38456;DHT22;24237;50.106;20.014;2024-01-11T05:54:42;-4.20;99.90
38456;DHT22;24237;50.106;20.014;2024-01-11T05:57:08;-4.50;99.90
38456;DHT22;24237;50.106;20.014;2024-01-11T05:59:34;-4.50;99.90
38456;DHT22;24237;50.106;20.014;2024-01-11T06:01:59;-4.50;1.00
38456;DHT22;24237;50.106;20.014;2024-01-11T06:04:27;-4.40;1.00
38456;DHT22;24237;50.106;20.014;2024-01-11T06:06:53;-4.60;99.90
38456;DHT22;24237;50.106;20.014;2024-01-11T06:09:18;-4.30;1.00
38456;DHT22;24237;50.106;20.014;2024-01-11T06:11:44;-4.30;99.90
38456;DHT22;24237;50.106;20.014;2024-01-11T06:14:09;-4.20;99.90
38456;DHT22;24237;50.106;20.014;2024-01-11T06:16:35;-4.10;99.90
38456;DHT22;24237;50.106;20.014;2024-01-11T06:19:02;-3.90;99.90
38456;DHT22;24237;50.106;20.014;2024-01-11T06:21:27;-3.80;99.90
38456;DHT22;24237;50.106;20.014;2024-01-11T06:23:54;-3.80;99.90
38456;DHT22;24237;50.106;20.014;2024-01-11T06:26:19;-4.00;99.90
38456;DHT22;24237;50.106;20.014;2024-01-11T06:28:45;-4.20;99.90
38456;DHT22;24237;50.106;20.014;2024-01-11T06:31:11;-4.10;99.90
38456;DHT22;24237;50.106;20.014;2024-01-11T06:33:37;-3.80;99.90
38456;DHT22;24237;50.106;20.014;2024-01-11T06:36:06;-3.80;99.90
38456;DHT22;24237;50.106;20.014;2024-01-11T06:38:35;-3.90;99.90
38456;DHT22;24237;50.106;20.014;2024-01-11T06:41:00;-3.90;99.90
38456;DHT22;24237;50.106;20.014;2024-01-11T06:43:26;-3.60;99.90
38456;DHT22;24237;50.106;20.014;2024-01-11T06:45:51;-3.60;94.50
38456;DHT22;24237;50.106;20.014;2024-01-11T06:48:18;-3.70;92.10
38456;DHT22;24237;50.106;20.014;2024-01-11T06:50:44;-3.80;97.70
38456;DHT22;24237;50.106;20.014;2024-01-11T06:53:09;-3.90;99.90
38456;DHT22;24237;50.106;20.014;2024-01-11T06:55:35;-3.60;58.70
38456;DHT22;24237;50.106;20.014;2024-01-11T06:58:00;-3.50;1.30
38456;DHT22;24237;50.106;20.014;2024-01-11T07:00:27;-3.30;1.00
38456;DHT22;24237;50.106;20.014;2024-01-11T07:02:53;-3.20;1.00
38456;DHT22;24237;50.106;20.014;2024-01-11T07:05:19;-3.10;1.00
38456;DHT22;24237;50.106;20.014;2024-01-11T07:07:46;-3.00;1.00
38456;DHT22;24237;50.106;20.014;2024-01-11T07:10:12;-2.70;1.00
38456;DHT22;24237;50.106;20.014;2024-01-11T07:12:38;-2.70;99.90
38456;DHT22;24237;50.106;20.014;2024-01-11T07:15:06;-2.70;99.90
38456;DHT22;24237;50.106;20.014;2024-01-11T07:17:33;-2.60;99.90
38456;DHT22;24237;50.106;20.014;2024-01-11T07:19:59;-2.50;99.90
38456;DHT22;24237;50.106;20.014;2024-01-11T07:22:24;-2.40;99.90
38456;DHT22;24237;50.106;20.014;2024-01-11T07:24:50;-2.40;99.90
38456;DHT22;24237;50.106;20.014;2024-01-11T07:27:16;-2.20;99.90
38456;DHT22;24237;50.106;20.014;2024-01-11T07:29:41;-2.30;99.90
38456;DHT22;24237;50.106;20.014;2024-01-11T07:32:07;-2.50;99.90
38456;DHT22;24237;50.106;20.014;2024-01-11T07:34:33;-2.50;1.00
38456;DHT22;24237;50.106;20.014;2024-01-11T07:36:59;-2.50;1.00
38456;DHT22;24237;50.106;20.014;2024-01-11T07:39:24;-2.30;1.00
38456;DHT22;24237;50.106;20.014;2024-01-11T07:41:50;-2.00;99.90
38456;DHT22;24237;50.106;20.014;2024-01-11T07:44:16;-2.20;1.00
38456;DHT22;24237;50.106;20.014;2024-01-11T07:46:42;-2.20;1.00
38456;DHT22;24237;50.106;20.014;2024-01-11T07:49:11;-2.10;1.00
38456;DHT22;24237;50.106;20.014;2024-01-11T07:51:36;-2.10;1.00
38456;DHT22;24237;50.106;20.014;2024-01-11T07:54:02;-2.20;1.00
38456;DHT22;24237;50.106;20.014;2024-01-11T07:56:29;-2.00;1.00
38456;DHT22;24237;50.106;20.014;2024-01-11T07:58:54;-1.80;1.00
38456;DHT22;24237;50.106;20.014;2024-01-11T08:01:20;-1.70;1.00
38456;DHT22;24237;50.106;20.014;2024-01-11T08:03:46;-1.80;1.00
38456;DHT22;24237;50.106;20.014;2024-01-11T08:06:13;-1.80;1.00
38456;DHT22;24237;50.106;20.014;2024-01-11T08:08:38;-1.50;99.90
38456;DHT22;24237;50.106;20.014;2024-01-11T08:11:05;-1.30;99.90
38456;DHT22;24237;50.106;20.014;2024-01-11T08:13:32;-1.30;99.90
38456;DHT22;24237;50.106;20.014;2024-01-11T08:16:00;-1.00;99.90
38456;DHT22;24237;50.106;20.014;2024-01-11T08:18:26;-0.70;99.90
38456;DHT22;24237;50.106;20.014;2024-01-11T08:20:52;-0.60;99.90
38456;DHT22;24237;50.106;20.014;2024-01-11T08:23:18;-0.50;99.90
38456;DHT22;24237;50.106;20.014;2024-01-11T08:25:43;-0.50;99.90
38456;DHT22;24237;50.106;20.014;2024-01-11T08:28:09;-0.40;99.90
38456;DHT22;24237;50.106;20.014;2024-01-11T08:30:35;-0.40;99.90
38456;DHT22;24237;50.106;20.014;2024-01-11T08:33:02;-0.30;99.90
38456;DHT22;24237;50.106;20.014;2024-01-11T08:35:29;-0.10;99.90
38456;DHT22;24237;50.106;20.014;2024-01-11T08:37:55;0.00;99.90
38456;DHT22;24237;50.106;20.014;2024-01-11T08:40:20;0.20;99.90
38456;DHT22;24237;50.106;20.014;2024-01-11T08:42:46;0.40;99.90
38456;DHT22;24237;50.106;20.014;2024-01-11T08:45:12;0.80;99.90
38456;DHT22;24237;50.106;20.014;2024-01-11T08:47:44;0.90;99.90
38456;DHT22;24237;50.106;20.014;2024-01-11T08:50:15;1.00;99.90
38456;DHT22;24237;50.106;20.014;2024-01-11T08:52:42;1.10;99.90
38456;DHT22;24237;50.106;20.014;2024-01-11T08:55:08;1.40;99.90
38456;DHT22;24237;50.106;20.014;2024-01-11T08:57:33;1.60;99.90
38456;DHT22;24237;50.106;20.014;2024-01-11T09:00:02;1.50;99.90
38456;DHT22;24237;50.106;20.014;2024-01-11T09:02:28;1.50;99.90
38456;DHT22;24237;50.106;20.014;2024-01-11T09:04:53;1.50;99.50
38456;DHT22;24237;50.106;20.014;2024-01-11T09:07:19;1.50;99.40
38456;DHT22;24237;50.106;20.014;2024-01-11T09:09:45;1.40;98.40
38456;DHT22;24237;50.106;20.014;2024-01-11T09:12:11;1.50;95.40
38456;DHT22;24237;50.106;20.014;2024-01-11T09:14:37;1.70;91.40
38456;DHT22;24237;50.106;20.014;2024-01-11T09:17:02;1.80;79.40
38456;DHT22;24237;50.106;20.014;2024-01-11T09:19:34;2.10;66.80
38456;DHT22;24237;50.106;20.014;2024-01-11T09:22:00;1.90;51.10
38456;DHT22;24237;50.106;20.014;2024-01-11T09:24:26;1.90;54.20
38456;DHT22;24237;50.106;20.014;2024-01-11T09:26:51;1.60;65.00
38456;DHT22;24237;50.106;20.014;2024-01-11T09:29:17;1.40;87.80
38456;DHT22;24237;50.106;20.014;2024-01-11T09:31:43;1.20;81.70
38456;DHT22;24237;50.106;20.014;2024-01-11T09:34:08;1.20;92.40
38456;DHT22;24237;50.106;20.014;2024-01-11T09:36:34;1.30;67.60
38456;DHT22;24237;50.106;20.014;2024-01-11T09:39:00;1.30;85.40
38456;DHT22;24237;50.106;20.014;2024-01-11T09:41:26;1.30;54.40
38456;DHT22;24237;50.106;20.014;2024-01-11T09:43:54;1.40;67.80
38456;DHT22;24237;50.106;20.014;2024-01-11T09:46:23;1.20;57.70
38456;DHT22;24237;50.106;20.014;2024-01-11T09:48:50;1.30;60.70
38456;DHT22;24237;50.106;20.014;2024-01-11T09:51:17;1.50;65.80
38456;DHT22;24237;50.106;20.014;2024-01-11T09:53:43;1.50;58.60
38456;DHT22;24237;50.106;20.014;2024-01-11T09:56:10;1.70;11.20
38456;DHT22;24237;50.106;20.014;2024-01-11T09:58:36;1.70;1.00
38456;DHT22;24237;50.106;20.014;2024-01-11T10:01:09;1.80;1.00
38456;DHT22;24237;50.106;20.014;2024-01-11T10:03:36;1.80;1.00
38456;DHT22;24237;50.106;20.014;2024-01-11T10:06:02;1.80;1.00
38456;DHT22;24237;50.106;20.014;2024-01-11T10:08:29;1.60;1.00
38456;DHT22;24237;50.106;20.014;2024-01-11T10:10:55;1.60;1.00
38456;DHT22;24237;50.106;20.014;2024-01-11T10:13:28;1.50;1.00
38456;DHT22;24237;50.106;20.014;2024-01-11T10:18:30;1.60;1.00
38456;DHT22;24237;50.106;20.014;2024-01-11T10:20:57;1.50;1.00
38456;DHT22;24237;50.106;20.014;2024-01-11T10:23:23;1.50;1.00
38456;DHT22;24237;50.106;20.014;2024-01-11T10:25:49;1.40;1.00
38456;DHT22;24237;50.106;20.014;2024-01-11T10:28:14;1.30;1.00
38456;DHT22;24237;50.106;20.014;2024-01-11T10:30:41;1.10;1.00
38456;DHT22;24237;50.106;20.014;2024-01-11T10:33:07;1.20;1.00
38456;DHT22;24237;50.106;20.014;2024-01-11T10:35:34;1.20;1.00
38456;DHT22;24237;50.106;20.014;2024-01-11T10:38:03;1.10;1.00
38456;DHT22;24237;50.106;20.014;2024-01-11T10:40:33;1.00;1.00
38456;DHT22;24237;50.106;20.014;2024-01-11T10:43:01;1.20;1.00
38456;DHT22;24237;50.106;20.014;2024-01-11T10:45:28;1.20;1.00
38456;DHT22;24237;50.106;20.014;2024-01-11T10:48:07;1.50;1.00
38456;DHT22;24237;50.106;20.014;2024-01-11T10:50:36;1.60;1.00
38456;DHT22;24237;50.106;20.014;2024-01-11T10:55:44;1.30;1.00
38456;DHT22;24237;50.106;20.014;2024-01-11T10:58:11;1.40;1.00
38456;DHT22;24237;50.106;20.014;2024-01-11T11:00:37;1.50;1.00
38456;DHT22;24237;50.106;20.014;2024-01-11T11:03:05;1.40;1.00
38456;DHT22;24237;50.106;20.014;2024-01-11T11:05:32;1.10;1.00
38456;DHT22;24237;50.106;20.014;2024-01-11T11:08:01;1.10;1.00
38456;DHT22;24237;50.106;20.014;2024-01-11T11:10:30;1.10;1.00
38456;DHT22;24237;50.106;20.014;2024-01-11T11:12:57;1.10;1.00
38456;DHT22;24237;50.106;20.014;2024-01-11T11:15:27;1.20;1.00
38456;DHT22;24237;50.106;20.014;2024-01-11T11:17:53;1.10;1.00
38456;DHT22;24237;50.106;20.014;2024-01-11T11:20:19;1.10;1.00
38456;DHT22;24237;50.106;20.014;2024-01-11T11:23:06;1.00;1.00
38456;DHT22;24237;50.106;20.014;2024-01-11T11:25:34;1.20;1.00
38456;DHT22;24237;50.106;20.014;2024-01-11T11:27:59;1.20;1.00
38456;DHT22;24237;50.106;20.014;2024-01-11T11:30:32;1.20;1.00
38456;DHT22;24237;50.106;20.014;2024-01-11T11:32:58;1.30;1.00
38456;DHT22;24237;50.106;20.014;2024-01-11T11:35:32;1.20;1.00
38456;DHT22;24237;50.106;20.014;2024-01-11T11:37:58;1.20;1.00
38456;DHT22;24237;50.106;20.014;2024-01-11T11:40:37;1.40;1.00
38456;DHT22;24237;50.106;20.014;2024-01-11T11:43:06;1.50;1.00
38456;DHT22;24237;50.106;20.014;2024-01-11T11:45:32;1.50;1.00
38456;DHT22;24237;50.106;20.014;2024-01-11T11:47:57;1.50;1.00
38456;DHT22;24237;50.106;20.014;2024-01-11T11:50:24;1.70;1.00
38456;DHT22;24237;50.106;20.014;2024-01-11T11:52:57;1.70;1.00
38456;DHT22;24237;50.106;20.014;2024-01-11T11:55:24;2.00;1.00
38456;DHT22;24237;50.106;20.014;2024-01-11T11:57:53;2.10;1.00
38456;DHT22;24237;50.106;20.014;2024-01-11T12:00:19;2.30;1.00
38456;DHT22;24237;50.106;20.014;2024-01-11T12:02:47;2.50;1.00
38456;DHT22;24237;50.106;20.014;2024-01-11T12:05:13;2.40;1.00
38456;DHT22;24237;50.106;20.014;2024-01-11T12:07:38;2.60;1.00
38456;DHT22;24237;50.106;20.014;2024-01-11T12:10:05;3.00;1.00
38456;DHT22;24237;50.106;20.014;2024-01-11T12:12:33;3.00;1.00
38456;DHT22;24237;50.106;20.014;2024-01-11T12:14:59;3.00;1.00
38456;DHT22;24237;50.106;20.014;2024-01-11T12:17:25;3.20;1.00
38456;DHT22;24237;50.106;20.014;2024-01-11T12:19:53;2.90;1.00
38456;DHT22;24237;50.106;20.014;2024-01-11T12:22:19;2.80;1.00
38456;DHT22;24237;50.106;20.014;2024-01-11T12:24:46;2.60;1.00
38456;DHT22;24237;50.106;20.014;2024-01-11T12:27:12;2.40;1.00
38456;DHT22;24237;50.106;20.014;2024-01-11T12:29:39;2.20;1.00
38456;DHT22;24237;50.106;20.014;2024-01-11T12:32:05;2.10;1.00
38456;DHT22;24237;50.106;20.014;2024-01-11T12:34:31;2.00;1.00
38456;DHT22;24237;50.106;20.014;2024-01-11T12:36:58;1.90;1.00
38456;DHT22;24237;50.106;20.014;2024-01-11T12:39:26;1.70;1.00
38456;DHT22;24237;50.106;20.014;2024-01-11T12:41:54;2.10;1.00
38456;DHT22;24237;50.106;20.014;2024-01-11T12:44:21;2.20;1.00
38456;DHT22;24237;50.106;20.014;2024-01-11T12:46:48;2.20;1.00
38456;DHT22;24237;50.106;20.014;2024-01-11T12:49:17;2.00;1.00
38456;DHT22;24237;50.106;20.014;2024-01-11T12:51:43;2.20;1.00
38456;DHT22;24237;50.106;20.014;2024-01-11T12:54:13;2.20;1.00
38456;DHT22;24237;50.106;20.014;2024-01-11T12:56:44;2.10;1.00
38456;DHT22;24237;50.106;20.014;2024-01-11T12:59:11;2.00;1.00
38456;DHT22;24237;50.106;20.014;2024-01-11T13:01:38;2.00;1.00
38456;DHT22;24237;50.106;20.014;2024-01-11T13:04:04;2.00;1.00
38456;DHT22;24237;50.106;20.014;2024-01-11T13:06:31;2.10;1.00
38456;DHT22;24237;50.106;20.014;2024-01-11T13:08:57;2.10;1.00
38456;DHT22;24237;50.106;20.014;2024-01-11T13:11:23;1.80;1.00
38456;DHT22;24237;50.106;20.014;2024-01-11T13:13:50;1.90;1.00
38456;DHT22;24237;50.106;20.014;2024-01-11T13:16:17;2.10;1.00
38456;DHT22;24237;50.106;20.014;2024-01-11T13:18:44;1.90;1.00
38456;DHT22;24237;50.106;20.014;2024-01-11T13:21:10;2.00;1.00
38456;DHT22;24237;50.106;20.014;2024-01-11T13:23:37;2.10;1.00
38456;DHT22;24237;50.106;20.014;2024-01-11T13:26:03;2.10;1.00
38456;DHT22;24237;50.106;20.014;2024-01-11T13:28:30;2.20;1.00
38456;DHT22;24237;50.106;20.014;2024-01-11T13:30:55;2.20;1.00
38456;DHT22;24237;50.106;20.014;2024-01-11T13:33:21;2.40;1.00
38456;DHT22;24237;50.106;20.014;2024-01-11T13:35:49;2.30;1.00
38456;DHT22;24237;50.106;20.014;2024-01-11T13:38:15;2.20;1.00
38456;DHT22;24237;50.106;20.014;2024-01-11T13:40:41;2.30;1.00
38456;DHT22;24237;50.106;20.014;2024-01-11T13:43:08;2.30;1.00
38456;DHT22;24237;50.106;20.014;2024-01-11T13:45:35;2.10;1.00
38456;DHT22;24237;50.106;20.014;2024-01-11T13:48:05;2.00;1.00
38456;DHT22;24237;50.106;20.014;2024-01-11T13:50:31;2.30;1.00
38456;DHT22;24237;50.106;20.014;2024-01-11T13:52:57;2.50;1.00
38456;DHT22;24237;50.106;20.014;2024-01-11T13:55:23;2.40;1.00
38456;DHT22;24237;50.106;20.014;2024-01-11T13:57:52;2.50;1.00
38456;DHT22;24237;50.106;20.014;2024-01-11T14:00:19;2.30;1.00
38456;DHT22;24237;50.106;20.014;2024-01-11T14:02:46;2.00;1.00
38456;DHT22;24237;50.106;20.014;2024-01-11T14:05:12;2.00;1.00
38456;DHT22;24237;50.106;20.014;2024-01-11T14:07:41;2.10;1.00
38456;DHT22;24237;50.106;20.014;2024-01-11T14:10:07;2.20;1.00
38456;DHT22;24237;50.106;20.014;2024-01-11T14:12:39;2.20;1.00
38456;DHT22;24237;50.106;20.014;2024-01-11T14:15:07;2.00;1.00
38456;DHT22;24237;50.106;20.014;2024-01-11T14:17:36;2.10;1.00
38456;DHT22;24237;50.106;20.014;2024-01-11T14:20:02;2.30;1.00
38456;DHT22;24237;50.106;20.014;2024-01-11T14:22:28;2.40;1.00
38456;DHT22;24237;50.106;20.014;2024-01-11T14:24:54;2.20;1.00
38456;DHT22;24237;50.106;20.014;2024-01-11T14:27:20;2.40;1.00
38456;DHT22;24237;50.106;20.014;2024-01-11T14:29:47;2.00;1.00
38456;DHT22;24237;50.106;20.014;2024-01-11T14:32:13;1.80;1.00
38456;DHT22;24237;50.106;20.014;2024-01-11T14:34:44;1.90;1.00
38456;DHT22;24237;50.106;20.014;2024-01-11T14:37:11;1.80;1.00
38456;DHT22;24237;50.106;20.014;2024-01-11T14:39:37;1.70;1.00
38456;DHT22;24237;50.106;20.014;2024-01-11T14:42:03;1.50;1.00
38456;DHT22;24237;50.106;20.014;2024-01-11T14:44:29;1.30;1.00
38456;DHT22;24237;50.106;20.014;2024-01-11T14:46:55;1.30;1.00
38456;DHT22;24237;50.106;20.014;2024-01-11T14:49:21;1.00;49.10
38456;DHT22;24237;50.106;20.014;2024-01-11T14:51:46;1.10;99.90
38456;DHT22;24237;50.106;20.014;2024-01-11T14:54:12;0.80;99.90
38456;DHT22;24237;50.106;20.014;2024-01-11T14:56:37;0.70;1.00
38456;DHT22;24237;50.106;20.014;2024-01-11T14:59:03;0.90;36.70
38456;DHT22;24237;50.106;20.014;2024-01-11T15:01:29;1.00;38.10
38456;DHT22;24237;50.106;20.014;2024-01-11T15:03:54;0.90;1.00
38456;DHT22;24237;50.106;20.014;2024-01-11T15:06:20;0.90;12.60
38456;DHT22;24237;50.106;20.014;2024-01-11T15:08:45;1.00;74.70
38456;DHT22;24237;50.106;20.014;2024-01-11T15:11:11;1.10;40.80
38456;DHT22;24237;50.106;20.014;2024-01-11T15:13:37;1.00;23.40
38456;DHT22;24237;50.106;20.014;2024-01-11T15:16:02;1.20;36.80
38456;DHT22;24237;50.106;20.014;2024-01-11T15:18:28;1.50;1.00
38456;DHT22;24237;50.106;20.014;2024-01-11T15:20:53;1.70;1.00
38456;DHT22;24237;50.106;20.014;2024-01-11T15:23:19;1.60;1.00
38456;DHT22;24237;50.106;20.014;2024-01-11T15:25:45;1.40;42.90
38456;DHT22;24237;50.106;20.014;2024-01-11T15:28:11;1.00;99.90
38456;DHT22;24237;50.106;20.014;2024-01-11T15:30:36;1.10;99.90